Terminal Aerodrome Forecast
Issued by NWS

Home | Current Version | Previous Version | Text Only | Print | Product List | Glossary On
Versions: 1 2 3 4 5 6 7 8 9 10 11 12 13 14 15 16 17 18 19 20 21 22 23 24
000
FTUS46 KOTX 270528
TAFSFF
TAF
KSFF 270528Z 2706/2806 21009KT P6SM FEW060 SCT080 BKN150
     FM270900 20011KT P6SM VCSH BKN040 BKN100 BKN150
     FM271500 20011G18KT P6SM BKN070 BKN200
     FM272100 22008G15KT P6SM BKN070 BKN150
     FM280200 VRB04KT P6SM SCT070 SCT150=

USA.gov is the U.S. government's official web portal to all federal, state and local government web resources and services.